sensor_id;sensor_type;location;lat;lon;timestamp;pressure;altitude;pressure_sealevel;temperature;humidity
50302;BME280;36550;50.472;19.744;2023-01-16T00:02:34;97144.90;;;3.67;84.87
50302;BME280;36550;50.472;19.744;2023-01-16T00:05:18;97146.58;;;3.66;84.77
50302;BME280;36550;50.472;19.744;2023-01-16T00:08:02;97144.91;;;3.65;84.68
50302;BME280;36550;50.472;19.744;2023-01-16T00:10:47;97147.87;;;3.64;84.69
50302;BME280;36550;50.472;19.744;2023-01-16T00:13:30;97148.77;;;3.63;84.79
50302;BME280;36550;50.472;19.744;2023-01-16T00:16:15;97146.90;;;3.61;85.09
50302;BME280;36550;50.472;19.744;2023-01-16T00:18:58;97142.93;;;3.57;84.98
50302;BME280;36550;50.472;19.744;2023-01-16T00:21:42;97147.91;;;3.54;85.15
50302;BME280;36550;50.472;19.744;2023-01-16T00:24:27;97145.81;;;3.52;85.11
50302;BME280;36550;50.472;19.744;2023-01-16T00:27:11;97144.19;;;3.48;84.98
50302;BME280;36550;50.472;19.744;2023-01-16T00:29:55;97140.55;;;3.43;84.96
50302;BME280;36550;50.472;19.744;2023-01-16T00:32:39;97144.89;;;3.38;85.00
50302;BME280;36550;50.472;19.744;2023-01-16T00:35:23;97144.42;;;3.33;84.99
50302;BME280;36550;50.472;19.744;2023-01-16T00:38:09;97144.70;;;3.27;84.87
50302;BME280;36550;50.472;19.744;2023-01-16T00:40:53;97150.85;;;3.22;84.72
50302;BME280;36550;50.472;19.744;2023-01-16T00:43:37;97152.36;;;3.17;84.81
50302;BME280;36550;50.472;19.744;2023-01-16T00:46:21;97153.42;;;3.12;84.67
50302;BME280;36550;50.472;19.744;2023-01-16T00:49:05;97149.52;;;3.05;84.68
50302;BME280;36550;50.472;19.744;2023-01-16T00:51:49;97145.36;;;2.98;84.67
50302;BME280;36550;50.472;19.744;2023-01-16T00:54:33;97150.29;;;2.90;84.43
50302;BME280;36550;50.472;19.744;2023-01-16T00:57:17;97148.23;;;2.81;84.22
50302;BME280;36550;50.472;19.744;2023-01-16T01:00:01;97152.30;;;2.75;84.04
50302;BME280;36550;50.472;19.744;2023-01-16T01:02:45;97159.11;;;2.69;84.14
50302;BME280;36550;50.472;19.744;2023-01-16T01:05:29;97158.59;;;2.65;84.03
50302;BME280;36550;50.472;19.744;2023-01-16T01:08:13;97152.72;;;2.62;84.23
50302;BME280;36550;50.472;19.744;2023-01-16T01:10:57;97152.25;;;2.59;84.30
50302;BME280;36550;50.472;19.744;2023-01-16T01:13:42;97155.27;;;2.57;84.60
50302;BME280;36550;50.472;19.744;2023-01-16T01:16:26;97158.24;;;2.54;84.49
50302;BME280;36550;50.472;19.744;2023-01-16T01:19:10;97154.30;;;2.51;84.41
50302;BME280;36550;50.472;19.744;2023-01-16T01:21:55;97154.55;;;2.48;84.24
50302;BME280;36550;50.472;19.744;2023-01-16T01:24:39;97152.16;;;2.44;84.40
50302;BME280;36550;50.472;19.744;2023-01-16T01:27:23;97143.30;;;2.39;84.45
50302;BME280;36550;50.472;19.744;2023-01-16T01:30:08;97150.00;;;2.33;84.76
50302;BME280;36550;50.472;19.744;2023-01-16T01:32:53;97147.66;;;2.27;84.97
50302;BME280;36550;50.472;19.744;2023-01-16T01:35:37;97147.20;;;2.21;84.97
50302;BME280;36550;50.472;19.744;2023-01-16T01:38:21;97146.36;;;2.17;85.00
50302;BME280;36550;50.472;19.744;2023-01-16T01:41:05;97142.04;;;2.13;84.90
50302;BME280;36550;50.472;19.744;2023-01-16T01:43:51;97146.38;;;2.09;84.86
50302;BME280;36550;50.472;19.744;2023-01-16T01:46:43;97140.13;;;2.05;84.70
50302;BME280;36550;50.472;19.744;2023-01-16T01:49:30;97140.11;;;2.02;84.60
50302;BME280;36550;50.472;19.744;2023-01-16T01:52:14;97131.66;;;1.99;84.65
50302;BME280;36550;50.472;19.744;2023-01-16T01:55:03;97131.67;;;1.96;84.69
50302;BME280;36550;50.472;19.744;2023-01-16T01:57:53;97128.05;;;1.93;84.68
50302;BME280;36550;50.472;19.744;2023-01-16T02:00:39;97124.35;;;1.91;84.70
50302;BME280;36550;50.472;19.744;2023-01-16T02:03:31;97120.38;;;1.89;84.64
50302;BME280;36550;50.472;19.744;2023-01-16T02:06:21;97118.77;;;1.84;84.70
50302;BME280;36550;50.472;19.744;2023-01-16T02:09:08;97116.43;;;1.78;84.75
50302;BME280;36550;50.472;19.744;2023-01-16T02:12:10;97112.25;;;1.71;84.70
50302;BME280;36550;50.472;19.744;2023-01-16T02:14:55;97113.57;;;1.64;84.67
50302;BME280;36550;50.472;19.744;2023-01-16T02:17:44;97113.45;;;1.57;84.68
50302;BME280;36550;50.472;19.744;2023-01-16T02:27:22;97086.13;;;1.45;84.69
50302;BME280;36550;50.472;19.744;2023-01-16T02:36:48;97066.55;;;1.44;86.14
50302;BME280;36550;50.472;19.744;2023-01-16T02:42:33;97062.17;;;1.44;86.37
50302;BME280;36550;50.472;19.744;2023-01-16T02:46:05;97065.72;;;1.45;86.26
50302;BME280;36550;50.472;19.744;2023-01-16T02:49:01;97069.38;;;1.46;86.17
50302;BME280;36550;50.472;19.744;2023-01-16T02:54:52;97069.41;;;1.48;87.17
50302;BME280;36550;50.472;19.744;2023-01-16T02:57:41;97071.39;;;1.50;87.25
50302;BME280;36550;50.472;19.744;2023-01-16T03:00:27;97076.81;;;1.52;87.38
50302;BME280;36550;50.472;19.744;2023-01-16T03:03:39;97074.63;;;1.54;87.41
50302;BME280;36550;50.472;19.744;2023-01-16T03:06:49;97077.73;;;1.58;87.34
50302;BME280;36550;50.472;19.744;2023-01-16T03:14:01;97072.60;;;1.60;87.48
50302;BME280;36550;50.472;19.744;2023-01-16T03:16:30;97067.39;;;1.61;87.47
50302;BME280;36550;50.472;19.744;2023-01-16T03:19:34;97073.95;;;1.63;87.94
50302;BME280;36550;50.472;19.744;2023-01-16T03:22:38;97073.59;;;1.62;88.29
50302;BME280;36550;50.472;19.744;2023-01-16T03:25:45;97069.84;;;1.62;88.44
50302;BME280;36550;50.472;19.744;2023-01-16T03:31:42;97069.45;;;1.65;88.27
50302;BME280;36550;50.472;19.744;2023-01-16T03:35:08;97070.13;;;1.68;88.80
50302;BME280;36550;50.472;19.744;2023-01-16T03:37:57;97066.49;;;1.75;89.22
50302;BME280;36550;50.472;19.744;2023-01-16T03:40:46;97063.34;;;1.82;89.20
50302;BME280;36550;50.472;19.744;2023-01-16T03:43:36;97064.88;;;1.91;89.65
50302;BME280;36550;50.472;19.744;2023-01-16T03:46:28;97066.77;;;2.02;89.75
50302;BME280;36550;50.472;19.744;2023-01-16T03:49:40;97067.85;;;2.15;89.73
50302;BME280;36550;50.472;19.744;2023-01-16T03:52:32;97065.59;;;2.26;89.66
50302;BME280;36550;50.472;19.744;2023-01-16T03:55:30;97063.08;;;2.36;89.53
50302;BME280;36550;50.472;19.744;2023-01-16T03:58:33;97060.53;;;2.46;89.39
50302;BME280;36550;50.472;19.744;2023-01-16T04:04:14;97067.86;;;2.65;88.82
50302;BME280;36550;50.472;19.744;2023-01-16T04:07:04;97059.02;;;2.72;88.92
50302;BME280;36550;50.472;19.744;2023-01-16T04:09:56;97047.84;;;2.76;88.88
50302;BME280;36550;50.472;19.744;2023-01-16T04:12:43;97043.75;;;2.78;88.85
50302;BME280;36550;50.472;19.744;2023-01-16T04:15:31;97040.00;;;2.80;88.68
50302;BME280;36550;50.472;19.744;2023-01-16T04:18:16;97038.63;;;2.84;88.47
50302;BME280;36550;50.472;19.744;2023-01-16T04:21:03;97038.48;;;2.88;88.28
50302;BME280;36550;50.472;19.744;2023-01-16T04:23:47;97038.20;;;2.93;87.97
50302;BME280;36550;50.472;19.744;2023-01-16T04:26:31;97036.79;;;2.97;87.79
50302;BME280;36550;50.472;19.744;2023-01-16T04:29:15;97036.29;;;2.99;87.63
50302;BME280;36550;50.472;19.744;2023-01-16T04:31:59;97031.30;;;3.00;87.54
50302;BME280;36550;50.472;19.744;2023-01-16T04:34:43;97029.03;;;3.00;87.42
50302;BME280;36550;50.472;19.744;2023-01-16T04:37:27;97023.71;;;3.01;87.17
50302;BME280;36550;50.472;19.744;2023-01-16T04:40:10;97016.81;;;3.02;86.90
50302;BME280;36550;50.472;19.744;2023-01-16T04:42:54;97012.38;;;3.03;86.74
50302;BME280;36550;50.472;19.744;2023-01-16T04:45:38;97008.76;;;3.03;86.53
50302;BME280;36550;50.472;19.744;2023-01-16T04:48:24;97004.27;;;3.01;86.36
50302;BME280;36550;50.472;19.744;2023-01-16T04:51:08;97004.02;;;2.96;86.24
50302;BME280;36550;50.472;19.744;2023-01-16T04:53:53;97000.30;;;2.90;86.18
50302;BME280;36550;50.472;19.744;2023-01-16T04:56:36;96998.36;;;2.83;86.12
50302;BME280;36550;50.472;19.744;2023-01-16T04:59:20;96995.80;;;2.79;85.93
50302;BME280;36550;50.472;19.744;2023-01-16T05:02:04;96989.41;;;2.75;85.89
50302;BME280;36550;50.472;19.744;2023-01-16T05:04:48;96981.54;;;2.74;85.85
50302;BME280;36550;50.472;19.744;2023-01-16T05:07:32;96980.23;;;2.72;85.95
50302;BME280;36550;50.472;19.744;2023-01-16T05:10:16;96981.41;;;2.70;85.88
50302;BME280;36550;50.472;19.744;2023-01-16T05:13:00;96978.36;;;2.69;85.86
50302;BME280;36550;50.472;19.744;2023-01-16T05:15:44;96974.44;;;2.66;85.91
50302;BME280;36550;50.472;19.744;2023-01-16T05:18:28;96967.17;;;2.62;86.07
50302;BME280;36550;50.472;19.744;2023-01-16T05:21:12;96970.06;;;2.59;86.08
50302;BME280;36550;50.472;19.744;2023-01-16T05:23:56;96970.63;;;2.57;85.96
50302;BME280;36550;50.472;19.744;2023-01-16T05:26:40;96966.42;;;2.56;85.90
50302;BME280;36550;50.472;19.744;2023-01-16T05:29:24;96960.69;;;2.53;85.91
50302;BME280;36550;50.472;19.744;2023-01-16T05:32:08;96961.08;;;2.52;85.89
50302;BME280;36550;50.472;19.744;2023-01-16T05:34:52;96958.52;;;2.49;85.92
50302;BME280;36550;50.472;19.744;2023-01-16T05:37:36;96958.35;;;2.46;86.00
50302;BME280;36550;50.472;19.744;2023-01-16T05:40:20;96959.85;;;2.43;85.92
50302;BME280;36550;50.472;19.744;2023-01-16T05:43:03;96957.98;;;2.40;85.98
50302;BME280;36550;50.472;19.744;2023-01-16T05:45:48;96952.89;;;2.37;86.06
50302;BME280;36550;50.472;19.744;2023-01-16T05:48:32;96947.98;;;2.33;85.94
50302;BME280;36550;50.472;19.744;2023-01-16T05:51:16;96946.55;;;2.34;85.89
50302;BME280;36550;50.472;19.744;2023-01-16T05:54:00;96945.87;;;2.35;85.75
50302;BME280;36550;50.472;19.744;2023-01-16T05:56:44;96946.53;;;2.35;85.69
50302;BME280;36550;50.472;19.744;2023-01-16T05:59:28;96950.31;;;2.37;85.68
50302;BME280;36550;50.472;19.744;2023-01-16T06:02:12;96949.07;;;2.38;85.69
50302;BME280;36550;50.472;19.744;2023-01-16T06:04:56;96949.30;;;2.39;85.62
50302;BME280;36550;50.472;19.744;2023-01-16T06:07:40;96948.71;;;2.38;85.56
50302;BME280;36550;50.472;19.744;2023-01-16T06:10:26;96947.16;;;2.37;85.65
50302;BME280;36550;50.472;19.744;2023-01-16T06:13:10;96946.50;;;2.34;85.66
50302;BME280;36550;50.472;19.744;2023-01-16T06:15:55;96942.92;;;2.31;85.59
50302;BME280;36550;50.472;19.744;2023-01-16T06:18:39;96938.89;;;2.29;85.58
50302;BME280;36550;50.472;19.744;2023-01-16T06:21:23;96936.17;;;2.30;85.45
50302;BME280;36550;50.472;19.744;2023-01-16T06:24:07;96932.54;;;2.31;85.38
50302;BME280;36550;50.472;19.744;2023-01-16T06:26:51;96925.71;;;2.33;85.36
50302;BME280;36550;50.472;19.744;2023-01-16T06:29:35;96920.85;;;2.35;85.27
50302;BME280;36550;50.472;19.744;2023-01-16T06:32:19;96920.59;;;2.37;85.19
50302;BME280;36550;50.472;19.744;2023-01-16T06:35:03;96913.58;;;2.39;85.19
50302;BME280;36550;50.472;19.744;2023-01-16T06:37:47;96913.36;;;2.40;85.17
50302;BME280;36550;50.472;19.744;2023-01-16T06:40:31;96910.06;;;2.39;85.14
50302;BME280;36550;50.472;19.744;2023-01-16T06:43:15;96914.90;;;2.37;85.14
50302;BME280;36550;50.472;19.744;2023-01-16T06:46:00;96913.09;;;2.34;85.13
50302;BME280;36550;50.472;19.744;2023-01-16T06:48:44;96904.34;;;2.30;85.21
50302;BME280;36550;50.472;19.744;2023-01-16T06:51:28;96903.77;;;2.28;85.17
50302;BME280;36550;50.472;19.744;2023-01-16T06:54:12;96898.84;;;2.25;85.09
50302;BME280;36550;50.472;19.744;2023-01-16T06:56:56;96890.05;;;2.25;84.94
50302;BME280;36550;50.472;19.744;2023-01-16T06:59:40;96890.36;;;2.25;84.84
50302;BME280;36550;50.472;19.744;2023-01-16T07:02:24;96891.47;;;2.26;84.72
50302;BME280;36550;50.472;19.744;2023-01-16T07:05:09;96890.73;;;2.29;84.73
50302;BME280;36550;50.472;19.744;2023-01-16T07:07:54;96881.61;;;2.30;84.69
50302;BME280;36550;50.472;19.744;2023-01-16T07:10:38;96879.89;;;2.31;84.81
50302;BME280;36550;50.472;19.744;2023-01-16T07:13:23;96874.42;;;2.32;84.81
50302;BME280;36550;50.472;19.744;2023-01-16T07:16:12;96873.98;;;2.33;84.75
50302;BME280;36550;50.472;19.744;2023-01-16T07:19:15;96877.99;;;2.34;84.83
50302;BME280;36550;50.472;19.744;2023-01-16T07:22:18;96879.55;;;2.36;84.78
50302;BME280;36550;50.472;19.744;2023-01-16T07:25:32;96876.70;;;2.37;84.70
50302;BME280;36550;50.472;19.744;2023-01-16T07:28:17;96876.23;;;2.43;84.55
50302;BME280;36550;50.472;19.744;2023-01-16T07:31:03;96878.85;;;2.49;84.44
50302;BME280;36550;50.472;19.744;2023-01-16T07:33:48;96880.40;;;2.56;84.39
50302;BME280;36550;50.472;19.744;2023-01-16T07:36:32;96878.17;;;2.64;84.29
50302;BME280;36550;50.472;19.744;2023-01-16T07:39:16;96873.94;;;2.71;84.25
50302;BME280;36550;50.472;19.744;2023-01-16T07:42:04;96873.26;;;2.76;84.26
50302;BME280;36550;50.472;19.744;2023-01-16T07:44:48;96873.35;;;2.80;84.06
50302;BME280;36550;50.472;19.744;2023-01-16T07:47:33;96872.25;;;2.83;84.00
50302;BME280;36550;50.472;19.744;2023-01-16T07:50:18;96867.98;;;2.88;83.99
50302;BME280;36550;50.472;19.744;2023-01-16T07:53:02;96867.63;;;2.92;83.87
50302;BME280;36550;50.472;19.744;2023-01-16T07:55:46;96864.02;;;2.95;83.78
50302;BME280;36550;50.472;19.744;2023-01-16T07:58:31;96857.50;;;2.97;83.60
50302;BME280;36550;50.472;19.744;2023-01-16T08:01:15;96852.95;;;3.02;83.49
50302;BME280;36550;50.472;19.744;2023-01-16T08:03:59;96852.23;;;3.09;83.43
50302;BME280;36550;50.472;19.744;2023-01-16T08:06:43;96851.10;;;3.17;83.33
50302;BME280;36550;50.472;19.744;2023-01-16T08:09:28;96847.40;;;3.25;83.31
50302;BME280;36550;50.472;19.744;2023-01-16T08:12:12;96848.17;;;3.35;83.23
50302;BME280;36550;50.472;19.744;2023-01-16T08:14:56;96844.48;;;3.41;83.30
50302;BME280;36550;50.472;19.744;2023-01-16T08:17:40;96837.39;;;3.50;83.35
50302;BME280;36550;50.472;19.744;2023-01-16T08:20:24;96829.05;;;3.60;83.29
50302;BME280;36550;50.472;19.744;2023-01-16T08:23:11;96823.90;;;3.70;83.25
50302;BME280;36550;50.472;19.744;2023-01-16T08:25:54;96817.49;;;3.78;83.10
50302;BME280;36550;50.472;19.744;2023-01-16T08:28:39;96812.38;;;3.90;83.14
50302;BME280;36550;50.472;19.744;2023-01-16T08:31:23;96806.36;;;4.04;83.04
50302;BME280;36550;50.472;19.744;2023-01-16T08:34:08;96807.27;;;4.18;82.76
50302;BME280;36550;50.472;19.744;2023-01-16T08:36:52;96803.73;;;4.29;82.32
50302;BME280;36550;50.472;19.744;2023-01-16T08:39:36;96795.60;;;4.34;81.71
50302;BME280;36550;50.472;19.744;2023-01-16T08:42:20;96794.03;;;4.36;81.23
50302;BME280;36550;50.472;19.744;2023-01-16T08:45:22;96792.01;;;4.36;81.07
50302;BME280;36550;50.472;19.744;2023-01-16T08:48:26;96789.84;;;4.34;80.82
50302;BME280;36550;50.472;19.744;2023-01-16T08:51:30;96791.23;;;4.36;81.02
50302;BME280;36550;50.472;19.744;2023-01-16T08:54:14;96790.84;;;4.41;81.11
50302;BME280;36550;50.472;19.744;2023-01-16T08:56:57;96794.42;;;4.53;81.08
50302;BME280;36550;50.472;19.744;2023-01-16T08:59:41;96786.58;;;4.62;80.70
50302;BME280;36550;50.472;19.744;2023-01-16T09:02:26;96785.88;;;4.73;80.42
50302;BME280;36550;50.472;19.744;2023-01-16T09:05:12;96784.95;;;4.83;80.29
50302;BME280;36550;50.472;19.744;2023-01-16T09:07:57;96780.34;;;4.94;80.27
50302;BME280;36550;50.472;19.744;2023-01-16T09:10:41;96772.75;;;5.05;80.46
50302;BME280;36550;50.472;19.744;2023-01-16T09:13:46;96766.66;;;5.15;80.15
50302;BME280;36550;50.472;19.744;2023-01-16T09:16:33;96758.61;;;5.20;79.69
50302;BME280;36550;50.472;19.744;2023-01-16T09:19:17;96757.20;;;5.25;79.27
50302;BME280;36550;50.472;19.744;2023-01-16T09:22:02;96758.35;;;5.31;79.40
50302;BME280;36550;50.472;19.744;2023-01-16T09:24:49;96754.71;;;5.37;79.11
50302;BME280;36550;50.472;19.744;2023-01-16T09:27:32;96749.36;;;5.37;78.33
50302;BME280;36550;50.472;19.744;2023-01-16T09:30:17;96739.41;;;5.34;77.70
50302;BME280;36550;50.472;19.744;2023-01-16T09:33:00;96741.61;;;5.32;78.02
50302;BME280;36550;50.472;19.744;2023-01-16T09:35:45;96739.98;;;5.30;77.81
50302;BME280;36550;50.472;19.744;2023-01-16T09:38:28;96740.40;;;5.28;77.71
50302;BME280;36550;50.472;19.744;2023-01-16T09:41:17;96727.41;;;5.26;77.49
50302;BME280;36550;50.472;19.744;2023-01-16T09:44:22;96722.08;;;5.28;78.26
50302;BME280;36550;50.472;19.744;2023-01-16T09:47:08;96716.38;;;5.35;78.58
50302;BME280;36550;50.472;19.744;2023-01-16T09:49:58;96714.42;;;5.44;78.50
50302;BME280;36550;50.472;19.744;2023-01-16T09:52:47;96707.96;;;5.54;78.22
50302;BME280;36550;50.472;19.744;2023-01-16T09:55:52;96706.11;;;5.60;78.28
50302;BME280;36550;50.472;19.744;2023-01-16T09:59:02;96688.80;;;5.65;78.19
50302;BME280;36550;50.472;19.744;2023-01-16T10:01:55;96686.87;;;5.70;78.23
50302;BME280;36550;50.472;19.744;2023-01-16T10:04:41;96677.63;;;5.75;78.26
50302;BME280;36550;50.472;19.744;2023-01-16T10:13:55;96659.14;;;5.97;77.88
50302;BME280;36550;50.472;19.744;2023-01-16T10:16:49;96648.17;;;6.02;77.55
50302;BME280;36550;50.472;19.744;2023-01-16T10:19:52;96641.33;;;6.07;77.86
50302;BME280;36550;50.472;19.744;2023-01-16T10:22:52;96640.41;;;6.13;77.81
50302;BME280;36550;50.472;19.744;2023-01-16T10:25:50;96630.16;;;6.18;77.67
50302;BME280;36550;50.472;19.744;2023-01-16T10:31:40;96618.10;;;6.19;77.26
50302;BME280;36550;50.472;19.744;2023-01-16T10:34:30;96609.20;;;6.21;77.26
50302;BME280;36550;50.472;19.744;2023-01-16T10:37:17;96604.41;;;6.24;77.61
50302;BME280;36550;50.472;19.744;2023-01-16T10:40:12;96602.27;;;6.32;77.51
50302;BME280;36550;50.472;19.744;2023-01-16T10:43:12;96598.62;;;6.42;77.41
50302;BME280;36550;50.472;19.744;2023-01-16T10:46:18;96596.36;;;6.53;77.31
50302;BME280;36550;50.472;19.744;2023-01-16T10:49:22;96583.45;;;6.64;77.38
50302;BME280;36550;50.472;19.744;2023-01-16T10:52:13;96581.52;;;6.68;77.10
50302;BME280;36550;50.472;19.744;2023-01-16T10:54:57;96571.98;;;6.73;77.07
50302;BME280;36550;50.472;19.744;2023-01-16T10:57:49;96567.95;;;6.77;76.94
50302;BME280;36550;50.472;19.744;2023-01-16T11:00:41;96569.30;;;6.80;76.90
50302;BME280;36550;50.472;19.744;2023-01-16T11:03:42;96555.33;;;6.81;76.68
50302;BME280;36550;50.472;19.744;2023-01-16T11:06:29;96546.83;;;6.87;76.80
50302;BME280;36550;50.472;19.744;2023-01-16T11:11:57;96529.23;;;6.96;76.44
50302;BME280;36550;50.472;19.744;2023-01-16T11:15:00;96516.09;;;6.96;75.90
50302;BME280;36550;50.472;19.744;2023-01-16T11:18:22;96514.34;;;6.94;75.83
50302;BME280;36550;50.472;19.744;2023-01-16T11:21:28;96512.60;;;6.92;75.93
50302;BME280;36550;50.472;19.744;2023-01-16T11:24:16;96500.44;;;6.90;76.03
50302;BME280;36550;50.472;19.744;2023-01-16T11:27:06;96492.45;;;6.89;75.68
50302;BME280;36550;50.472;19.744;2023-01-16T11:29:54;96485.67;;;6.89;75.73
50302;BME280;36550;50.472;19.744;2023-01-16T11:32:41;96488.98;;;6.92;75.81
50302;BME280;36550;50.472;19.744;2023-01-16T11:35:34;96480.98;;;6.96;75.88
50302;BME280;36550;50.472;19.744;2023-01-16T11:38:21;96472.62;;;7.00;75.76
50302;BME280;36550;50.472;19.744;2023-01-16T11:41:06;96461.91;;;7.05;75.70
50302;BME280;36550;50.472;19.744;2023-01-16T11:44:11;96457.48;;;7.11;75.91
50302;BME280;36550;50.472;19.744;2023-01-16T11:47:16;96453.38;;;7.16;75.81
50302;BME280;36550;50.472;19.744;2023-01-16T11:50:20;96445.48;;;7.13;75.58
50302;BME280;36550;50.472;19.744;2023-01-16T11:53:04;96441.49;;;7.11;75.63
50302;BME280;36550;50.472;19.744;2023-01-16T11:59:24;96434.74;;;7.06;75.24
50302;BME280;36550;50.472;19.744;2023-01-16T12:11:57;96397.80;;;6.70;75.10
50302;BME280;36550;50.472;19.744;2023-01-16T12:15:13;96394.23;;;6.59;74.76
50302;BME280;36550;50.472;19.744;2023-01-16T12:43:48;96348.19;;;5.74;74.78
50302;BME280;36550;50.472;19.744;2023-01-16T12:46:49;96336.70;;;5.57;75.16
50302;BME280;36550;50.472;19.744;2023-01-16T12:52:46;96335.24;;;5.34;76.15
50302;BME280;36550;50.472;19.744;2023-01-16T12:55:55;96332.66;;;5.31;76.61
50302;BME280;36550;50.472;19.744;2023-01-16T12:59:03;96326.30;;;5.27;76.85
50302;BME280;36550;50.472;19.744;2023-01-16T13:01:56;96319.59;;;5.27;76.95
50302;BME280;36550;50.472;19.744;2023-01-16T13:04:48;96316.94;;;5.26;76.92
50302;BME280;36550;50.472;19.744;2023-01-16T13:07:37;96310.11;;;5.26;76.97
50302;BME280;36550;50.472;19.744;2023-01-16T13:10:30;96309.67;;;5.28;77.11
50302;BME280;36550;50.472;19.744;2023-01-16T13:13:40;96307.82;;;5.30;77.18
50302;BME280;36550;50.472;19.744;2023-01-16T13:17:38;96304.73;;;5.28;77.36
50302;BME280;36550;50.472;19.744;2023-01-16T13:19:51;96309.98;;;5.23;77.44
50302;BME280;36550;50.472;19.744;2023-01-16T13:22:43;96310.74;;;5.17;77.61
50302;BME280;36550;50.472;19.744;2023-01-16T13:25:33;96303.80;;;5.15;77.59
50302;BME280;36550;50.472;19.744;2023-01-16T13:31:36;96287.44;;;5.00;77.55
50302;BME280;36550;50.472;19.744;2023-01-16T13:34:25;96284.58;;;4.92;77.40
50302;BME280;36550;50.472;19.744;2023-01-16T13:37:31;96277.36;;;4.85;77.53
50302;BME280;36550;50.472;19.744;2023-01-16T13:43:31;96256.72;;;4.76;77.80
50302;BME280;36550;50.472;19.744;2023-01-16T13:46:35;96252.17;;;4.75;77.98
50302;BME280;36550;50.472;19.744;2023-01-16T13:49:22;96248.70;;;4.75;78.09
50302;BME280;36550;50.472;19.744;2023-01-16T13:52:18;96249.42;;;4.75;78.19
50302;BME280;36550;50.472;19.744;2023-01-16T13:55:04;96251.60;;;4.74;78.30
50302;BME280;36550;50.472;19.744;2023-01-16T13:57:49;96246.91;;;4.76;78.39
50302;BME280;36550;50.472;19.744;2023-01-16T14:00:36;96240.33;;;4.79;78.36
50302;BME280;36550;50.472;19.744;2023-01-16T14:03:26;96234.65;;;4.82;78.34
50302;BME280;36550;50.472;19.744;2023-01-16T14:23:37;96196.54;;;4.80;78.77
50302;BME280;36550;50.472;19.744;2023-01-16T14:26:51;96187.77;;;4.73;78.88
50302;BME280;36550;50.472;19.744;2023-01-16T14:29:45;96186.52;;;4.64;78.94
50302;BME280;36550;50.472;19.744;2023-01-16T14:32:35;96185.42;;;4.60;79.08
50302;BME280;36550;50.472;19.744;2023-01-16T14:35:27;96183.14;;;4.57;79.59
50302;BME280;36550;50.472;19.744;2023-01-16T14:38:18;96182.19;;;4.50;79.55
50302;BME280;36550;50.472;19.744;2023-01-16T14:41:05;96180.46;;;4.46;79.68
50302;BME280;36550;50.472;19.744;2023-01-16T14:44:14;96180.52;;;4.42;80.06
50302;BME280;36550;50.472;19.744;2023-01-16T14:50:42;96177.79;;;4.39;80.03
50302;BME280;36550;50.472;19.744;2023-01-16T14:53:50;96170.83;;;4.39;80.13
50302;BME280;36550;50.472;19.744;2023-01-16T14:57:11;96164.90;;;4.38;80.15
50302;BME280;36550;50.472;19.744;2023-01-16T15:00:04;96160.79;;;4.38;80.32
50302;BME280;36550;50.472;19.744;2023-01-16T15:03:42;96155.51;;;4.36;80.50
50302;BME280;36550;50.472;19.744;2023-01-16T15:06:01;96150.27;;;4.32;80.42
50302;BME280;36550;50.472;19.744;2023-01-16T15:08:47;96145.63;;;4.27;80.46
50302;BME280;36550;50.472;19.744;2023-01-16T15:11:41;96145.62;;;4.23;80.56
50302;BME280;36550;50.472;19.744;2023-01-16T15:14:29;96142.17;;;4.20;80.74
50302;BME280;36550;50.472;19.744;2023-01-16T15:17:35;96135.75;;;4.18;80.69
50302;BME280;36550;50.472;19.744;2023-01-16T15:20:39;96133.65;;;4.16;80.66
50302;BME280;36550;50.472;19.744;2023-01-16T15:23:44;96131.45;;;4.12;80.85
50302;BME280;36550;50.472;19.744;2023-01-16T15:30:00;96120.54;;;4.02;81.09
50302;BME280;36550;50.472;19.744;2023-01-16T15:32:59;96116.42;;;4.02;81.00
50302;BME280;36550;50.472;19.744;2023-01-16T15:36:02;96098.38;;;4.03;81.11
50302;BME280;36550;50.472;19.744;2023-01-16T15:38:58;96096.38;;;4.04;81.19
50302;BME280;36550;50.472;19.744;2023-01-16T15:41:42;96090.98;;;4.06;81.25
50302;BME280;36550;50.472;19.744;2023-01-16T15:44:50;96092.01;;;4.03;81.35
50302;BME280;36550;50.472;19.744;2023-01-16T15:48:21;96092.55;;;4.01;81.47
50302;BME280;36550;50.472;19.744;2023-01-16T15:51:10;96088.30;;;3.97;81.63
50302;BME280;36550;50.472;19.744;2023-01-16T15:53:56;96076.48;;;3.96;81.55
50302;BME280;36550;50.472;19.744;2023-01-16T15:56:45;96072.27;;;3.95;81.67
50302;BME280;36550;50.472;19.744;2023-01-16T15:59:32;96065.83;;;3.94;81.53
50302;BME280;36550;50.472;19.744;2023-01-16T16:02:25;96058.24;;;3.94;81.58
50302;BME280;36550;50.472;19.744;2023-01-16T16:05:13;96053.54;;;3.92;81.84
50302;BME280;36550;50.472;19.744;2023-01-16T16:07:58;96048.57;;;3.89;81.78
50302;BME280;36550;50.472;19.744;2023-01-16T16:10:42;96046.55;;;3.85;81.95
50302;BME280;36550;50.472;19.744;2023-01-16T16:13:46;96045.63;;;3.81;81.85
50302;BME280;36550;50.472;19.744;2023-01-16T16:16:31;96039.70;;;3.81;81.87
50302;BME280;36550;50.472;19.744;2023-01-16T16:19:34;96037.30;;;3.76;82.09
50302;BME280;36550;50.472;19.744;2023-01-16T16:22:20;96030.97;;;3.72;82.19
50302;BME280;36550;50.472;19.744;2023-01-16T16:25:27;96028.77;;;3.70;82.17
50302;BME280;36550;50.472;19.744;2023-01-16T16:28:36;96027.02;;;3.68;82.32
50302;BME280;36550;50.472;19.744;2023-01-16T16:31:32;96018.15;;;3.64;82.41
50302;BME280;36550;50.472;19.744;2023-01-16T16:34:22;96009.04;;;3.62;82.44
50302;BME280;36550;50.472;19.744;2023-01-16T16:37:13;95999.87;;;3.59;82.53
50302;BME280;36550;50.472;19.744;2023-01-16T16:40:06;95996.77;;;3.56;82.49
50302;BME280;36550;50.472;19.744;2023-01-16T16:42:58;95988.48;;;3.52;82.57
50302;BME280;36550;50.472;19.744;2023-01-16T16:45:43;95987.34;;;3.48;82.45
50302;BME280;36550;50.472;19.744;2023-01-16T16:48:31;95982.50;;;3.47;82.58
50302;BME280;36550;50.472;19.744;2023-01-16T16:51:21;95978.44;;;3.43;82.83
50302;BME280;36550;50.472;19.744;2023-01-16T16:54:09;95976.14;;;3.39;82.89
50302;BME280;36550;50.472;19.744;2023-01-16T16:56:57;95976.06;;;3.35;82.92